sensor_id;sensor_type;location;lat;lon;timestamp;pressure;altitude;pressure_sealevel;temperature;humidity
79690;BME280;69156;55.932;-3.238;2024-03-08T00:01:30;101445.00;;;6.97;100.00
79690;BME280;69156;55.932;-3.238;2024-03-08T00:03:55;101443.00;;;6.94;100.00
79690;BME280;69156;55.932;-3.238;2024-03-08T00:06:21;101446.00;;;7.09;100.00
79690;BME280;69156;55.932;-3.238;2024-03-08T00:08:46;101441.00;;;6.96;100.00
79690;BME280;69156;55.932;-3.238;2024-03-08T00:11:12;101443.00;;;7.04;100.00
79690;BME280;69156;55.932;-3.238;2024-03-08T00:13:38;101439.00;;;7.15;100.00
79690;BME280;69156;55.932;-3.238;2024-03-08T00:16:04;101435.00;;;6.98;100.00
79690;BME280;69156;55.932;-3.238;2024-03-08T00:18:29;101440.00;;;7.16;100.00
79690;BME280;69156;55.932;-3.238;2024-03-08T00:20:55;101433.00;;;7.01;100.00
79690;BME280;69156;55.932;-3.238;2024-03-08T00:23:21;101429.00;;;6.92;100.00
79690;BME280;69156;55.932;-3.238;2024-03-08T00:25:46;101436.00;;;6.94;100.00
79690;BME280;69156;55.932;-3.238;2024-03-08T00:28:12;101427.00;;;6.85;100.00
79690;BME280;69156;55.932;-3.238;2024-03-08T00:30:37;101426.00;;;6.95;100.00
79690;BME280;69156;55.932;-3.238;2024-03-08T00:33:03;101424.00;;;6.77;100.00
79690;BME280;69156;55.932;-3.238;2024-03-08T00:35:29;101437.00;;;6.85;100.00
79690;BME280;69156;55.932;-3.238;2024-03-08T00:37:54;101420.00;;;6.78;100.00
79690;BME280;69156;55.932;-3.238;2024-03-08T00:40:20;101423.00;;;6.69;100.00
79690;BME280;69156;55.932;-3.238;2024-03-08T00:42:45;101417.00;;;6.47;100.00
79690;BME280;69156;55.932;-3.238;2024-03-08T00:45:11;101414.00;;;6.58;100.00
79690;BME280;69156;55.932;-3.238;2024-03-08T00:47:37;101411.00;;;6.66;100.00
79690;BME280;69156;55.932;-3.238;2024-03-08T00:50:03;101407.00;;;6.50;100.00
79690;BME280;69156;55.932;-3.238;2024-03-08T00:52:29;101404.00;;;6.61;100.00
79690;BME280;69156;55.932;-3.238;2024-03-08T00:54:54;101403.00;;;6.58;100.00
79690;BME280;69156;55.932;-3.238;2024-03-08T00:57:20;101402.00;;;6.62;100.00
79690;BME280;69156;55.932;-3.238;2024-03-08T00:59:45;101394.00;;;6.48;100.00
79690;BME280;69156;55.932;-3.238;2024-03-08T01:02:11;101389.00;;;6.37;100.00
79690;BME280;69156;55.932;-3.238;2024-03-08T01:04:37;101380.00;;;6.33;100.00
79690;BME280;69156;55.932;-3.238;2024-03-08T01:07:02;101371.00;;;6.41;100.00
79690;BME280;69156;55.932;-3.238;2024-03-08T01:09:28;101373.00;;;6.52;100.00
79690;BME280;69156;55.932;-3.238;2024-03-08T01:11:54;101368.00;;;6.46;100.00
79690;BME280;69156;55.932;-3.238;2024-03-08T01:14:20;101368.00;;;6.37;100.00
79690;BME280;69156;55.932;-3.238;2024-03-08T01:16:45;101371.00;;;6.34;100.00
79690;BME280;69156;55.932;-3.238;2024-03-08T01:19:11;101368.00;;;6.32;100.00
79690;BME280;69156;55.932;-3.238;2024-03-08T01:21:36;101371.00;;;6.52;100.00
79690;BME280;69156;55.932;-3.238;2024-03-08T01:24:02;101365.00;;;6.43;100.00
79690;BME280;69156;55.932;-3.238;2024-03-08T01:26:28;101365.00;;;6.47;100.00
79690;BME280;69156;55.932;-3.238;2024-03-08T01:28:54;101361.00;;;6.50;100.00
79690;BME280;69156;55.932;-3.238;2024-03-08T01:31:19;101358.00;;;6.59;100.00
79690;BME280;69156;55.932;-3.238;2024-03-08T01:33:45;101359.00;;;6.58;100.00
79690;BME280;69156;55.932;-3.238;2024-03-08T01:36:10;101356.00;;;6.66;100.00
79690;BME280;69156;55.932;-3.238;2024-03-08T01:38:36;101359.00;;;6.56;100.00
79690;BME280;69156;55.932;-3.238;2024-03-08T01:41:02;101363.00;;;6.61;100.00
79690;BME280;69156;55.932;-3.238;2024-03-08T01:43:28;101357.00;;;6.40;100.00
79690;BME280;69156;55.932;-3.238;2024-03-08T01:45:55;101351.00;;;6.38;100.00
79690;BME280;69156;55.932;-3.238;2024-03-08T01:48:23;101354.00;;;6.37;100.00
79690;BME280;69156;55.932;-3.238;2024-03-08T01:50:49;101349.00;;;6.26;100.00
79690;BME280;69156;55.932;-3.238;2024-03-08T01:53:15;101345.00;;;6.43;100.00
79690;BME280;69156;55.932;-3.238;2024-03-08T01:55:44;101340.00;;;6.39;100.00
79690;BME280;69156;55.932;-3.238;2024-03-08T01:58:10;101336.00;;;6.56;100.00
79690;BME280;69156;55.932;-3.238;2024-03-08T02:00:38;101331.00;;;6.52;100.00
79690;BME280;69156;55.932;-3.238;2024-03-08T02:03:05;101330.00;;;6.52;100.00
79690;BME280;69156;55.932;-3.238;2024-03-08T02:05:31;101332.00;;;6.45;100.00
79690;BME280;69156;55.932;-3.238;2024-03-08T02:07:57;101327.00;;;6.40;100.00
79690;BME280;69156;55.932;-3.238;2024-03-08T02:10:23;101328.00;;;6.30;100.00
79690;BME280;69156;55.932;-3.238;2024-03-08T02:12:49;101327.00;;;6.25;100.00
79690;BME280;69156;55.932;-3.238;2024-03-08T02:15:14;101327.00;;;6.25;100.00
79690;BME280;69156;55.932;-3.238;2024-03-08T02:17:40;101326.00;;;6.27;100.00
79690;BME280;69156;55.932;-3.238;2024-03-08T02:20:06;101325.00;;;6.38;100.00
79690;BME280;69156;55.932;-3.238;2024-03-08T02:22:32;101322.00;;;6.24;100.00
79690;BME280;69156;55.932;-3.238;2024-03-08T02:24:58;101318.00;;;6.38;100.00
79690;BME280;69156;55.932;-3.238;2024-03-08T02:27:24;101313.00;;;6.42;100.00
79690;BME280;69156;55.932;-3.238;2024-03-08T02:29:50;101308.00;;;6.29;100.00
79690;BME280;69156;55.932;-3.238;2024-03-08T02:32:19;101300.00;;;6.35;100.00
79690;BME280;69156;55.932;-3.238;2024-03-08T02:34:45;101298.00;;;6.41;100.00
79690;BME280;69156;55.932;-3.238;2024-03-08T02:37:11;101294.00;;;6.31;100.00
79690;BME280;69156;55.932;-3.238;2024-03-08T02:39:36;101287.00;;;6.30;100.00
79690;BME280;69156;55.932;-3.238;2024-03-08T02:42:02;101279.00;;;6.44;100.00
79690;BME280;69156;55.932;-3.238;2024-03-08T02:44:27;101273.00;;;6.29;100.00
79690;BME280;69156;55.932;-3.238;2024-03-08T02:46:53;101266.00;;;6.42;100.00
79690;BME280;69156;55.932;-3.238;2024-03-08T02:49:19;101261.00;;;6.29;100.00
79690;BME280;69156;55.932;-3.238;2024-03-08T02:51:44;101260.00;;;6.40;100.00
79690;BME280;69156;55.932;-3.238;2024-03-08T02:54:10;101267.00;;;6.46;100.00
79690;BME280;69156;55.932;-3.238;2024-03-08T02:56:35;101262.00;;;6.51;100.00
79690;BME280;69156;55.932;-3.238;2024-03-08T02:59:01;101262.00;;;6.51;100.00
79690;BME280;69156;55.932;-3.238;2024-03-08T03:01:26;101258.00;;;6.49;100.00
79690;BME280;69156;55.932;-3.238;2024-03-08T03:03:52;101255.00;;;6.66;100.00
79690;BME280;69156;55.932;-3.238;2024-03-08T03:06:18;101253.00;;;6.69;100.00
79690;BME280;69156;55.932;-3.238;2024-03-08T03:08:43;101243.00;;;6.61;100.00
79690;BME280;69156;55.932;-3.238;2024-03-08T03:11:09;101241.00;;;6.68;100.00
79690;BME280;69156;55.932;-3.238;2024-03-08T03:13:34;101236.00;;;6.49;100.00
79690;BME280;69156;55.932;-3.238;2024-03-08T03:16:00;101235.00;;;6.56;100.00
79690;BME280;69156;55.932;-3.238;2024-03-08T03:18:25;101231.00;;;6.59;100.00
79690;BME280;69156;55.932;-3.238;2024-03-08T03:20:51;101227.00;;;6.36;100.00
79690;BME280;69156;55.932;-3.238;2024-03-08T03:23:17;101214.00;;;6.37;100.00
79690;BME280;69156;55.932;-3.238;2024-03-08T03:25:42;101193.00;;;6.34;100.00
79690;BME280;69156;55.932;-3.238;2024-03-08T03:28:08;101195.00;;;6.40;100.00
79690;BME280;69156;55.932;-3.238;2024-03-08T03:30:34;101199.00;;;6.38;100.00
79690;BME280;69156;55.932;-3.238;2024-03-08T03:33:00;101192.00;;;6.44;100.00
79690;BME280;69156;55.932;-3.238;2024-03-08T03:35:26;101191.00;;;6.57;100.00
79690;BME280;69156;55.932;-3.238;2024-03-08T03:37:52;101190.00;;;6.50;100.00
79690;BME280;69156;55.932;-3.238;2024-03-08T03:40:17;101188.00;;;6.48;100.00
79690;BME280;69156;55.932;-3.238;2024-03-08T03:42:43;101192.00;;;6.43;100.00
79690;BME280;69156;55.932;-3.238;2024-03-08T03:45:09;101189.00;;;6.45;100.00
79690;BME280;69156;55.932;-3.238;2024-03-08T03:47:35;101191.00;;;6.46;100.00
79690;BME280;69156;55.932;-3.238;2024-03-08T03:50:00;101194.00;;;6.35;100.00
79690;BME280;69156;55.932;-3.238;2024-03-08T03:52:26;101188.00;;;6.53;100.00
79690;BME280;69156;55.932;-3.238;2024-03-08T03:54:51;101182.00;;;6.36;100.00
79690;BME280;69156;55.932;-3.238;2024-03-08T03:57:17;101175.00;;;6.49;100.00
79690;BME280;69156;55.932;-3.238;2024-03-08T03:59:42;101174.00;;;6.38;100.00
79690;BME280;69156;55.932;-3.238;2024-03-08T04:02:08;101172.00;;;6.32;100.00
79690;BME280;69156;55.932;-3.238;2024-03-08T04:04:34;101176.00;;;6.18;100.00
79690;BME280;69156;55.932;-3.238;2024-03-08T04:06:59;101166.00;;;6.32;100.00
79690;BME280;69156;55.932;-3.238;2024-03-08T04:09:25;101166.00;;;6.21;100.00
79690;BME280;69156;55.932;-3.238;2024-03-08T04:11:50;101158.00;;;6.34;100.00
79690;BME280;69156;55.932;-3.238;2024-03-08T04:14:16;101164.00;;;6.26;100.00
79690;BME280;69156;55.932;-3.238;2024-03-08T04:16:41;101157.00;;;6.36;100.00
79690;BME280;69156;55.932;-3.238;2024-03-08T04:19:07;101150.00;;;6.32;100.00
79690;BME280;69156;55.932;-3.238;2024-03-08T04:21:33;101142.00;;;6.43;100.00
79690;BME280;69156;55.932;-3.238;2024-03-08T04:23:58;101144.00;;;5.95;100.00
79690;BME280;69156;55.932;-3.238;2024-03-08T04:26:24;101138.00;;;6.20;100.00
79690;BME280;69156;55.932;-3.238;2024-03-08T04:28:49;101134.00;;;6.15;100.00
79690;BME280;69156;55.932;-3.238;2024-03-08T04:31:15;101136.00;;;6.31;100.00
79690;BME280;69156;55.932;-3.238;2024-03-08T04:33:41;101142.00;;;6.23;100.00
79690;BME280;69156;55.932;-3.238;2024-03-08T04:36:07;101136.00;;;6.08;100.00
79690;BME280;69156;55.932;-3.238;2024-03-08T04:38:33;101136.00;;;6.18;100.00
79690;BME280;69156;55.932;-3.238;2024-03-08T04:40:59;101143.00;;;6.32;100.00
79690;BME280;69156;55.932;-3.238;2024-03-08T04:43:25;101148.00;;;6.31;100.00
79690;BME280;69156;55.932;-3.238;2024-03-08T04:45:51;101143.00;;;6.54;100.00
79690;BME280;69156;55.932;-3.238;2024-03-08T04:48:16;101143.00;;;6.38;100.00
79690;BME280;69156;55.932;-3.238;2024-03-08T04:50:42;101138.00;;;6.43;100.00
79690;BME280;69156;55.932;-3.238;2024-03-08T04:53:08;101128.00;;;6.34;100.00
79690;BME280;69156;55.932;-3.238;2024-03-08T04:55:33;101134.00;;;6.15;100.00
79690;BME280;69156;55.932;-3.238;2024-03-08T04:57:59;101134.00;;;6.30;100.00
79690;BME280;69156;55.932;-3.238;2024-03-08T05:00:25;101132.00;;;6.49;100.00
79690;BME280;69156;55.932;-3.238;2024-03-08T05:02:50;101132.00;;;6.34;100.00
79690;BME280;69156;55.932;-3.238;2024-03-08T05:05:16;101139.00;;;6.40;100.00
79690;BME280;69156;55.932;-3.238;2024-03-08T05:07:41;101131.00;;;6.37;100.00
79690;BME280;69156;55.932;-3.238;2024-03-08T05:10:07;101130.00;;;6.44;100.00
79690;BME280;69156;55.932;-3.238;2024-03-08T05:12:33;101132.00;;;6.30;100.00
79690;BME280;69156;55.932;-3.238;2024-03-08T05:14:58;101132.00;;;6.38;100.00
79690;BME280;69156;55.932;-3.238;2024-03-08T05:17:24;101129.00;;;6.45;100.00
79690;BME280;69156;55.932;-3.238;2024-03-08T05:19:50;101122.00;;;6.35;100.00
79690;BME280;69156;55.932;-3.238;2024-03-08T05:22:15;101112.00;;;6.37;100.00
79690;BME280;69156;55.932;-3.238;2024-03-08T05:24:41;101117.00;;;6.34;100.00
79690;BME280;69156;55.932;-3.238;2024-03-08T05:27:07;101115.00;;;6.38;100.00
79690;BME280;69156;55.932;-3.238;2024-03-08T05:29:32;101117.00;;;6.41;100.00
79690;BME280;69156;55.932;-3.238;2024-03-08T05:31:58;101116.00;;;6.53;100.00
79690;BME280;69156;55.932;-3.238;2024-03-08T05:34:23;101116.00;;;6.55;100.00
79690;BME280;69156;55.932;-3.238;2024-03-08T05:36:49;101121.00;;;6.52;100.00
79690;BME280;69156;55.932;-3.238;2024-03-08T05:39:16;101115.00;;;6.45;100.00
79690;BME280;69156;55.932;-3.238;2024-03-08T05:41:42;101124.00;;;6.49;100.00
79690;BME280;69156;55.932;-3.238;2024-03-08T05:44:08;101117.00;;;6.38;100.00
79690;BME280;69156;55.932;-3.238;2024-03-08T05:46:34;101122.00;;;6.48;100.00
79690;BME280;69156;55.932;-3.238;2024-03-08T05:49:00;101109.00;;;6.42;100.00
79690;BME280;69156;55.932;-3.238;2024-03-08T05:51:25;101109.00;;;6.52;100.00
79690;BME280;69156;55.932;-3.238;2024-03-08T05:53:51;101105.00;;;6.61;100.00
79690;BME280;69156;55.932;-3.238;2024-03-08T05:56:16;101105.00;;;6.64;100.00
79690;BME280;69156;55.932;-3.238;2024-03-08T05:58:42;101109.00;;;6.54;100.00
79690;BME280;69156;55.932;-3.238;2024-03-08T06:01:08;101096.00;;;6.65;100.00
79690;BME280;69156;55.932;-3.238;2024-03-08T06:03:33;101101.00;;;6.57;100.00
79690;BME280;69156;55.932;-3.238;2024-03-08T06:05:59;101103.00;;;6.66;100.00
79690;BME280;69156;55.932;-3.238;2024-03-08T06:08:24;101104.00;;;6.58;100.00
79690;BME280;69156;55.932;-3.238;2024-03-08T06:10:50;101100.00;;;6.62;100.00
79690;BME280;69156;55.932;-3.238;2024-03-08T06:13:16;101087.00;;;6.46;100.00
79690;BME280;69156;55.932;-3.238;2024-03-08T06:15:41;101090.00;;;6.59;100.00
79690;BME280;69156;55.932;-3.238;2024-03-08T06:18:07;101093.00;;;6.54;100.00
79690;BME280;69156;55.932;-3.238;2024-03-08T06:20:32;101092.00;;;6.62;100.00
79690;BME280;69156;55.932;-3.238;2024-03-08T06:22:58;101087.00;;;6.57;100.00
79690;BME280;69156;55.932;-3.238;2024-03-08T06:25:23;101087.00;;;6.74;100.00
79690;BME280;69156;55.932;-3.238;2024-03-08T06:27:49;101092.00;;;6.72;100.00
79690;BME280;69156;55.932;-3.238;2024-03-08T06:30:15;101087.00;;;6.73;100.00
79690;BME280;69156;55.932;-3.238;2024-03-08T06:32:41;101087.00;;;6.69;100.00
79690;BME280;69156;55.932;-3.238;2024-03-08T06:35:07;101085.00;;;6.67;100.00
79690;BME280;69156;55.932;-3.238;2024-03-08T06:37:33;101085.00;;;6.54;100.00
79690;BME280;69156;55.932;-3.238;2024-03-08T06:39:59;101088.00;;;6.50;100.00
79690;BME280;69156;55.932;-3.238;2024-03-08T06:42:24;101086.00;;;6.49;100.00
79690;BME280;69156;55.932;-3.238;2024-03-08T06:44:50;101086.00;;;6.47;100.00
79690;BME280;69156;55.932;-3.238;2024-03-08T06:47:16;101090.00;;;6.44;100.00
79690;BME280;69156;55.932;-3.238;2024-03-08T06:49:41;101092.00;;;6.49;100.00
79690;BME280;69156;55.932;-3.238;2024-03-08T06:52:07;101093.00;;;6.39;100.00
79690;BME280;69156;55.932;-3.238;2024-03-08T06:54:33;101091.00;;;6.40;100.00
79690;BME280;69156;55.932;-3.238;2024-03-08T06:56:58;101088.00;;;6.34;100.00
79690;BME280;69156;55.932;-3.238;2024-03-08T06:59:24;101088.00;;;6.49;100.00
79690;BME280;69156;55.932;-3.238;2024-03-08T07:01:49;101086.00;;;6.54;100.00
79690;BME280;69156;55.932;-3.238;2024-03-08T07:04:15;101095.00;;;6.46;100.00
79690;BME280;69156;55.932;-3.238;2024-03-08T07:06:40;101090.00;;;6.37;100.00
79690;BME280;69156;55.932;-3.238;2024-03-08T07:09:06;101091.00;;;6.43;100.00
79690;BME280;69156;55.932;-3.238;2024-03-08T07:11:32;101090.00;;;6.55;100.00
79690;BME280;69156;55.932;-3.238;2024-03-08T07:13:57;101086.00;;;6.51;100.00
79690;BME280;69156;55.932;-3.238;2024-03-08T07:16:23;101084.00;;;6.33;100.00
79690;BME280;69156;55.932;-3.238;2024-03-08T07:18:48;101082.00;;;6.42;100.00
79690;BME280;69156;55.932;-3.238;2024-03-08T07:21:14;101081.00;;;6.30;100.00
79690;BME280;69156;55.932;-3.238;2024-03-08T07:23:39;101082.00;;;6.55;100.00
79690;BME280;69156;55.932;-3.238;2024-03-08T07:26:05;101080.00;;;6.51;100.00
79690;BME280;69156;55.932;-3.238;2024-03-08T07:28:30;101080.00;;;6.41;100.00
79690;BME280;69156;55.932;-3.238;2024-03-08T07:30:57;101079.00;;;6.35;100.00
79690;BME280;69156;55.932;-3.238;2024-03-08T07:33:23;101076.00;;;6.48;100.00
79690;BME280;69156;55.932;-3.238;2024-03-08T07:35:48;101079.00;;;6.49;100.00
79690;BME280;69156;55.932;-3.238;2024-03-08T07:38:14;101080.00;;;6.56;100.00
79690;BME280;69156;55.932;-3.238;2024-03-08T07:40:40;101079.00;;;6.39;100.00
79690;BME280;69156;55.932;-3.238;2024-03-08T07:43:06;101084.00;;;6.32;100.00
79690;BME280;69156;55.932;-3.238;2024-03-08T07:45:32;101078.00;;;6.34;100.00
79690;BME280;69156;55.932;-3.238;2024-03-08T07:47:58;101075.00;;;6.39;100.00
79690;BME280;69156;55.932;-3.238;2024-03-08T07:50:23;101068.00;;;6.46;100.00
79690;BME280;69156;55.932;-3.238;2024-03-08T07:52:49;101077.00;;;6.42;100.00
79690;BME280;69156;55.932;-3.238;2024-03-08T07:55:14;101071.00;;;6.50;100.00
79690;BME280;69156;55.932;-3.238;2024-03-08T07:57:40;101067.00;;;6.54;100.00
79690;BME280;69156;55.932;-3.238;2024-03-08T08:00:06;101070.00;;;6.69;100.00
79690;BME280;69156;55.932;-3.238;2024-03-08T08:02:32;101075.00;;;6.62;100.00
79690;BME280;69156;55.932;-3.238;2024-03-08T08:04:58;101075.00;;;6.59;100.00
79690;BME280;69156;55.932;-3.238;2024-03-08T08:07:23;101065.00;;;6.50;100.00
79690;BME280;69156;55.932;-3.238;2024-03-08T08:09:49;101062.00;;;6.50;100.00
79690;BME280;69156;55.932;-3.238;2024-03-08T08:12:14;101070.00;;;6.39;100.00
79690;BME280;69156;55.932;-3.238;2024-03-08T08:14:40;101055.00;;;6.41;100.00
79690;BME280;69156;55.932;-3.238;2024-03-08T08:17:06;101070.00;;;6.34;100.00
79690;BME280;69156;55.932;-3.238;2024-03-08T08:19:31;101057.00;;;6.44;100.00
79690;BME280;69156;55.932;-3.238;2024-03-08T08:21:57;101051.00;;;6.40;100.00
79690;BME280;69156;55.932;-3.238;2024-03-08T08:24:23;101056.00;;;6.33;100.00
79690;BME280;69156;55.932;-3.238;2024-03-08T08:26:48;101058.00;;;6.24;100.00
79690;BME280;69156;55.932;-3.238;2024-03-08T08:29:14;101070.00;;;6.31;100.00
79690;BME280;69156;55.932;-3.238;2024-03-08T08:31:39;101061.00;;;6.39;100.00
79690;BME280;69156;55.932;-3.238;2024-03-08T08:34:05;101059.00;;;6.41;100.00
79690;BME280;69156;55.932;-3.238;2024-03-08T08:36:30;101062.00;;;6.26;100.00
79690;BME280;69156;55.932;-3.238;2024-03-08T08:38:56;101060.00;;;6.38;100.00
79690;BME280;69156;55.932;-3.238;2024-03-08T08:41:22;101053.00;;;6.33;100.00
79690;BME280;69156;55.932;-3.238;2024-03-08T08:43:47;101047.00;;;6.32;100.00
79690;BME280;69156;55.932;-3.238;2024-03-08T08:46:13;101045.00;;;6.26;100.00
79690;BME280;69156;55.932;-3.238;2024-03-08T08:48:39;101054.00;;;6.17;100.00
79690;BME280;69156;55.932;-3.238;2024-03-08T08:51:04;101057.00;;;6.33;100.00
79690;BME280;69156;55.932;-3.238;2024-03-08T08:53:30;101053.00;;;6.34;100.00
79690;BME280;69156;55.932;-3.238;2024-03-08T08:55:55;101056.00;;;6.29;100.00
79690;BME280;69156;55.932;-3.238;2024-03-08T08:58:21;101056.00;;;6.25;100.00
79690;BME280;69156;55.932;-3.238;2024-03-08T09:00:47;101042.00;;;6.39;100.00
79690;BME280;69156;55.932;-3.238;2024-03-08T09:03:12;101047.00;;;6.41;100.00
79690;BME280;69156;55.932;-3.238;2024-03-08T09:05:38;101040.00;;;6.37;100.00
79690;BME280;69156;55.932;-3.238;2024-03-08T09:08:04;101037.00;;;6.42;100.00
79690;BME280;69156;55.932;-3.238;2024-03-08T09:10:30;101043.00;;;6.50;100.00
79690;BME280;69156;55.932;-3.238;2024-03-08T09:12:55;101043.00;;;6.61;100.00
79690;BME280;69156;55.932;-3.238;2024-03-08T09:15:21;101046.00;;;6.60;100.00
79690;BME280;69156;55.932;-3.238;2024-03-08T09:17:46;101040.00;;;6.38;100.00
79690;BME280;69156;55.932;-3.238;2024-03-08T09:20:12;101039.00;;;6.54;100.00
79690;BME280;69156;55.932;-3.238;2024-03-08T09:22:38;101030.00;;;6.50;100.00
79690;BME280;69156;55.932;-3.238;2024-03-08T09:25:04;101036.00;;;6.50;100.00
79690;BME280;69156;55.932;-3.238;2024-03-08T09:27:29;101031.00;;;6.47;100.00
79690;BME280;69156;55.932;-3.238;2024-03-08T09:29:55;101027.00;;;6.45;100.00
79690;BME280;69156;55.932;-3.238;2024-03-08T09:32:21;101023.00;;;6.47;100.00
79690;BME280;69156;55.932;-3.238;2024-03-08T09:34:46;101023.00;;;6.55;100.00
79690;BME280;69156;55.932;-3.238;2024-03-08T09:37:12;101015.00;;;6.50;100.00
79690;BME280;69156;55.932;-3.238;2024-03-08T09:39:37;101014.00;;;6.35;100.00
79690;BME280;69156;55.932;-3.238;2024-03-08T09:42:04;101011.00;;;6.26;100.00
79690;BME280;69156;55.932;-3.238;2024-03-08T09:44:29;101012.00;;;6.18;100.00
79690;BME280;69156;55.932;-3.238;2024-03-08T09:46:55;101002.00;;;6.51;100.00
79690;BME280;69156;55.932;-3.238;2024-03-08T09:49:21;100997.00;;;6.71;100.00
79690;BME280;69156;55.932;-3.238;2024-03-08T09:51:47;100991.00;;;6.83;100.00
79690;BME280;69156;55.932;-3.238;2024-03-08T09:54:13;100992.00;;;6.90;100.00
79690;BME280;69156;55.932;-3.238;2024-03-08T09:56:39;100988.00;;;6.55;100.00
79690;BME280;69156;55.932;-3.238;2024-03-08T09:59:05;100982.00;;;6.68;100.00
79690;BME280;69156;55.932;-3.238;2024-03-08T10:01:30;100981.00;;;6.80;100.00
79690;BME280;69156;55.932;-3.238;2024-03-08T10:03:57;100980.00;;;6.90;100.00
79690;BME280;69156;55.932;-3.238;2024-03-08T10:06:23;100978.00;;;6.94;100.00
79690;BME280;69156;55.932;-3.238;2024-03-08T10:08:49;100969.00;;;6.62;100.00
79690;BME280;69156;55.932;-3.238;2024-03-08T10:11:14;100966.00;;;6.55;100.00
79690;BME280;69156;55.932;-3.238;2024-03-08T10:13:40;100962.00;;;6.64;100.00
79690;BME280;69156;55.932;-3.238;2024-03-08T10:16:06;100963.00;;;6.25;100.00
79690;BME280;69156;55.932;-3.238;2024-03-08T10:18:33;100949.00;;;6.37;100.00
79690;BME280;69156;55.932;-3.238;2024-03-08T10:21:02;100955.00;;;6.44;100.00
79690;BME280;69156;55.932;-3.238;2024-03-08T10:23:28;100948.00;;;6.50;100.00
79690;BME280;69156;55.932;-3.238;2024-03-08T10:25:54;100946.00;;;6.66;100.00
79690;BME280;69156;55.932;-3.238;2024-03-08T10:28:20;100948.00;;;6.55;100.00
79690;BME280;69156;55.932;-3.238;2024-03-08T10:30:47;100950.00;;;6.53;100.00
79690;BME280;69156;55.932;-3.238;2024-03-08T10:33:13;100948.00;;;6.45;100.00
79690;BME280;69156;55.932;-3.238;2024-03-08T10:35:38;100947.00;;;6.60;100.00
79690;BME280;69156;55.932;-3.238;2024-03-08T10:38:05;100943.00;;;6.62;100.00
79690;BME280;69156;55.932;-3.238;2024-03-08T10:40:32;100940.00;;;6.76;100.00
79690;BME280;69156;55.932;-3.238;2024-03-08T10:42:59;100947.00;;;6.73;100.00
79690;BME280;69156;55.932;-3.238;2024-03-08T10:45:31;100940.00;;;6.81;100.00
79690;BME280;69156;55.932;-3.238;2024-03-08T10:48:10;100946.00;;;6.85;100.00
79690;BME280;69156;55.932;-3.238;2024-03-08T10:50:40;100926.00;;;6.96;100.00
79690;BME280;69156;55.932;-3.238;2024-03-08T10:53:07;100927.00;;;7.04;100.00
79690;BME280;69156;55.932;-3.238;2024-03-08T10:55:36;100929.00;;;6.97;100.00
79690;BME280;69156;55.932;-3.238;2024-03-08T10:58:05;100921.00;;;7.16;100.00
79690;BME280;69156;55.932;-3.238;2024-03-08T11:00:31;100921.00;;;6.92;100.00
79690;BME280;69156;55.932;-3.238;2024-03-08T11:02:56;100917.00;;;7.05;100.00
79690;BME280;69156;55.932;-3.238;2024-03-08T11:05:38;100913.00;;;7.21;100.00
79690;BME280;69156;55.932;-3.238;2024-03-08T11:08:15;100902.00;;;7.26;100.00
79690;BME280;69156;55.932;-3.238;2024-03-08T11:10:46;100898.00;;;7.18;100.00
79690;BME280;69156;55.932;-3.238;2024-03-08T11:13:32;100899.00;;;7.04;100.00
79690;BME280;69156;55.932;-3.238;2024-03-08T11:15:59;100901.00;;;7.18;100.00
79690;BME280;69156;55.932;-3.238;2024-03-08T11:18:25;100902.00;;;7.16;100.00
79690;BME280;69156;55.932;-3.238;2024-03-08T11:20:53;100888.00;;;7.15;100.00
79690;BME280;69156;55.932;-3.238;2024-03-08T11:23:22;100886.00;;;7.28;100.00
79690;BME280;69156;55.932;-3.238;2024-03-08T11:25:48;100880.00;;;7.34;100.00
79690;BME280;69156;55.932;-3.238;2024-03-08T11:28:15;100877.00;;;7.41;100.00
79690;BME280;69156;55.932;-3.238;2024-03-08T11:30:42;100885.00;;;7.22;100.00
79690;BME280;69156;55.932;-3.238;2024-03-08T11:33:11;100891.00;;;7.11;100.00
79690;BME280;69156;55.932;-3.238;2024-03-08T11:35:37;100882.00;;;7.18;100.00
79690;BME280;69156;55.932;-3.238;2024-03-08T11:38:02;100874.00;;;7.14;100.00
79690;BME280;69156;55.932;-3.238;2024-03-08T11:40:29;100875.00;;;7.52;100.00
79690;BME280;69156;55.932;-3.238;2024-03-08T11:42:54;100870.00;;;7.44;100.00
79690;BME280;69156;55.932;-3.238;2024-03-08T11:45:20;100861.00;;;7.49;100.00
79690;BME280;69156;55.932;-3.238;2024-03-08T11:47:45;100875.00;;;7.35;100.00
79690;BME280;69156;55.932;-3.238;2024-03-08T11:50:11;100865.00;;;7.56;100.00
79690;BME280;69156;55.932;-3.238;2024-03-08T11:52:37;100869.00;;;7.57;100.00
79690;BME280;69156;55.932;-3.238;2024-03-08T11:55:04;100849.00;;;7.66;100.00
79690;BME280;69156;55.932;-3.238;2024-03-08T11:57:31;100860.00;;;7.64;100.00
79690;BME280;69156;55.932;-3.238;2024-03-08T11:59:57;100871.00;;;7.50;100.00
79690;BME280;69156;55.932;-3.238;2024-03-08T12:02:23;100862.00;;;7.39;100.00
79690;BME280;69156;55.932;-3.238;2024-03-08T12:04:56;100863.00;;;7.54;100.00
79690;BME280;69156;55.932;-3.238;2024-03-08T12:07:22;100861.00;;;7.59;100.00
79690;BME280;69156;55.932;-3.238;2024-03-08T12:10:14;100863.00;;;7.76;100.00
79690;BME280;69156;55.932;-3.238;2024-03-08T12:12:40;100857.00;;;7.67;100.00
79690;BME280;69156;55.932;-3.238;2024-03-08T12:15:07;100852.00;;;7.93;100.00
79690;BME280;69156;55.932;-3.238;2024-03-08T12:17:32;100850.00;;;8.08;100.00
79690;BME280;69156;55.932;-3.238;2024-03-08T12:20:11;100837.00;;;8.07;100.00
79690;BME280;69156;55.932;-3.238;2024-03-08T12:22:41;100851.00;;;7.83;100.00
79690;BME280;69156;55.932;-3.238;2024-03-08T12:25:07;100845.00;;;7.67;100.00
79690;BME280;69156;55.932;-3.238;2024-03-08T12:27:33;100841.00;;;7.72;100.00
79690;BME280;69156;55.932;-3.238;2024-03-08T12:29:59;100837.00;;;8.02;100.00
79690;BME280;69156;55.932;-3.238;2024-03-08T12:32:24;100836.00;;;7.99;100.00
79690;BME280;69156;55.932;-3.238;2024-03-08T12:34:52;100833.00;;;8.01;100.00